createdAt,value
2018-08-12T00:00:56.325Z,0.80
2018-08-12T00:03:23.468Z,1.10
2018-08-12T00:05:50.637Z,1.23
2018-08-12T00:08:17.774Z,0.87
2018-08-12T00:10:44.950Z,1.00
2018-08-12T00:13:12.204Z,0.80
2018-08-12T00:15:39.430Z,0.97
2018-08-12T00:18:06.611Z,1.07
2018-08-12T00:20:33.824Z,1.53
2018-08-12T00:23:00.989Z,0.90
2018-08-12T00:25:28.154Z,0.80
2018-08-12T00:27:55.288Z,0.90
2018-08-12T00:30:22.437Z,0.80
2018-08-12T00:32:49.622Z,1.00
2018-08-12T00:35:18.007Z,0.90
2018-08-12T00:37:45.280Z,0.90
2018-08-12T00:40:13.674Z,0.80
2018-08-12T00:42:41.090Z,1.47
2018-08-12T00:45:12.935Z,1.00
2018-08-12T00:47:40.290Z,1.10
2018-08-12T00:50:08.972Z,1.00
2018-08-12T00:52:36.138Z,1.17
2018-08-12T00:55:03.890Z,1.00
2018-08-12T00:57:31.041Z,1.00
2018-08-12T00:59:58.361Z,1.07
2018-08-12T01:02:25.521Z,1.03
2018-08-12T01:04:52.684Z,1.00
2018-08-12T01:07:19.884Z,0.77
2018-08-12T01:09:47.125Z,1.00
2018-08-12T01:12:14.403Z,0.87
2018-08-12T01:14:41.662Z,1.00
2018-08-12T01:17:15.522Z,1.17
2018-08-12T01:19:42.706Z,0.90
2018-08-12T01:22:09.905Z,1.13
2018-08-12T01:24:37.092Z,1.00
2018-08-12T01:27:04.233Z,1.10
2018-08-12T01:29:31.388Z,0.80
2018-08-12T01:31:58.571Z,0.83
2018-08-12T01:34:25.732Z,1.00
2018-08-12T01:36:52.897Z,0.83
2018-08-12T01:39:20.031Z,1.40
2018-08-12T01:41:47.200Z,1.10
2018-08-12T01:44:14.395Z,1.10
2018-08-12T01:46:41.684Z,1.13
2018-08-12T01:49:08.812Z,0.83
2018-08-12T01:51:35.965Z,0.90
2018-08-12T01:54:03.119Z,1.00
2018-08-12T01:56:30.245Z,1.07
2018-08-12T01:58:57.353Z,1.17
2018-08-12T02:01:24.505Z,0.87
2018-08-12T02:03:51.610Z,1.13
2018-08-12T02:06:18.782Z,1.00
2018-08-12T02:08:46.215Z,0.93
2018-08-12T02:11:13.450Z,1.00
2018-08-12T02:13:40.630Z,1.00
2018-08-12T02:16:07.773Z,0.77
2018-08-12T02:18:34.910Z,0.90
2018-08-12T02:21:02.055Z,0.73
2018-08-12T02:23:29.195Z,0.90
2018-08-12T02:25:56.361Z,0.70
2018-08-12T02:28:23.495Z,0.80
2018-08-12T02:30:50.621Z,0.80
2018-08-12T02:33:17.795Z,1.00
2018-08-12T02:35:44.966Z,1.40
2018-08-12T02:38:12.235Z,0.80
2018-08-12T02:40:39.365Z,1.10
2018-08-12T02:43:06.553Z,0.67
2018-08-12T02:45:33.669Z,0.97
2018-08-12T02:48:00.798Z,1.00
2018-08-12T02:50:27.949Z,0.97
2018-08-12T02:52:55.110Z,0.93
2018-08-12T02:55:22.279Z,0.60
2018-08-12T02:57:49.486Z,0.90
2018-08-12T03:00:16.710Z,0.90
2018-08-12T03:02:43.900Z,0.90
2018-08-12T03:05:11.111Z,1.00
2018-08-12T03:07:38.236Z,0.97
2018-08-12T03:10:06.184Z,1.10
2018-08-12T03:12:33.292Z,0.90
2018-08-12T03:15:00.457Z,1.00
2018-08-12T03:17:27.604Z,0.80
2018-08-12T03:19:54.726Z,1.00
2018-08-12T03:22:21.949Z,0.97
2018-08-12T03:24:49.033Z,1.20
2018-08-12T03:27:16.398Z,1.03
2018-08-12T03:29:43.617Z,0.90
2018-08-12T03:32:10.795Z,1.17
2018-08-12T03:34:37.947Z,1.10
2018-08-12T03:37:05.291Z,0.90
2018-08-12T03:39:32.467Z,1.27
2018-08-12T03:41:59.528Z,1.03
2018-08-12T03:44:26.638Z,1.00
2018-08-12T03:46:53.764Z,0.70
2018-08-12T03:49:20.901Z,0.97
2018-08-12T03:51:48.034Z,0.83
2018-08-12T03:54:15.248Z,1.13
2018-08-12T03:56:42.419Z,1.20
2018-08-12T03:59:09.578Z,0.57
2018-08-12T04:01:36.713Z,1.00
2018-08-12T04:04:03.855Z,1.07
2018-08-12T04:06:31.017Z,0.70
2018-08-12T04:08:58.160Z,1.17
2018-08-12T04:11:25.318Z,1.00
2018-08-12T04:13:52.455Z,0.93
2018-08-12T04:16:19.620Z,0.70
2018-08-12T04:18:46.799Z,1.00
2018-08-12T04:21:13.982Z,0.90
2018-08-12T04:23:41.168Z,0.70
2018-08-12T04:26:08.298Z,1.00
2018-08-12T04:28:35.617Z,1.00
2018-08-12T04:31:02.869Z,1.20
2018-08-12T04:33:30.030Z,2.07
2018-08-12T04:35:57.230Z,1.00
2018-08-12T04:38:24.377Z,1.10
2018-08-12T04:40:51.546Z,1.07
2018-08-12T04:43:18.755Z,1.20
2018-08-12T04:45:45.964Z,0.93
2018-08-12T04:48:13.192Z,0.50
2018-08-12T04:50:40.409Z,0.87
2018-08-12T04:53:07.570Z,1.07
2018-08-12T04:55:34.717Z,0.90
2018-08-12T04:58:01.868Z,0.83
2018-08-12T05:00:29.036Z,0.80
2018-08-12T05:02:56.161Z,0.97
2018-08-12T05:05:23.339Z,1.00
2018-08-12T05:07:50.452Z,0.77
2018-08-12T05:10:17.597Z,1.10
2018-08-12T05:12:44.812Z,0.70
2018-08-12T05:15:12.113Z,0.60
2018-08-12T05:17:39.981Z,1.20
2018-08-12T05:20:07.592Z,0.70
2018-08-12T05:22:34.734Z,0.90
2018-08-12T05:25:01.928Z,0.80
2018-08-12T05:27:29.182Z,0.60
2018-08-12T05:29:56.394Z,0.70
2018-08-12T05:32:23.516Z,0.87
2018-08-12T05:34:50.667Z,1.17
2018-08-12T05:37:17.822Z,1.30
2018-08-12T05:39:44.992Z,1.07
2018-08-12T05:42:12.300Z,1.12
2018-08-12T05:44:39.464Z,1.60
2018-08-12T05:47:06.605Z,1.40
2018-08-12T05:49:33.749Z,1.32
2018-08-12T05:52:00.926Z,1.00
2018-08-12T05:54:28.060Z,1.10
2018-08-12T05:56:55.225Z,1.57
2018-08-12T05:59:22.368Z,1.70
2018-08-12T06:01:49.517Z,1.37
2018-08-12T06:04:16.686Z,1.05
2018-08-12T06:06:43.951Z,1.22
2018-08-12T06:09:11.098Z,1.55
2018-08-12T06:11:38.255Z,0.95
2018-08-12T06:14:06.108Z,1.22
2018-08-12T06:16:33.261Z,1.05
2018-08-12T06:19:00.381Z,1.60
2018-08-12T06:21:27.517Z,1.20
2018-08-12T06:23:54.653Z,1.60
2018-08-12T06:26:21.793Z,1.50
2018-08-12T06:28:48.972Z,1.60
2018-08-12T06:31:16.187Z,1.40
2018-08-12T06:33:43.370Z,1.47
2018-08-12T06:36:10.558Z,1.47
2018-08-12T06:38:37.699Z,1.55
2018-08-12T06:43:39.280Z,1.40
2018-08-12T06:46:06.617Z,1.40
2018-08-12T06:48:33.766Z,1.72
2018-08-12T06:51:00.921Z,1.98
2018-08-12T06:53:28.075Z,1.70
2018-08-12T06:55:55.215Z,1.60
2018-08-12T06:58:22.388Z,1.30
2018-08-12T07:00:49.509Z,1.50
2018-08-12T07:03:16.706Z,1.70
2018-08-12T07:05:43.917Z,1.60
2018-08-12T07:08:11.192Z,1.42
2018-08-12T07:10:38.319Z,1.47
2018-08-12T07:13:05.521Z,1.37
2018-08-12T07:15:32.670Z,1.55
2018-08-12T07:17:59.785Z,1.45
2018-08-12T07:20:26.916Z,1.32
2018-08-12T07:22:54.058Z,1.57
2018-08-12T07:25:21.193Z,1.30
2018-08-12T07:27:48.358Z,1.45
2018-08-12T07:30:15.956Z,1.20
2018-08-12T07:32:43.174Z,1.65
2018-08-12T07:35:10.986Z,1.20
2018-08-12T07:37:38.422Z,1.20
2018-08-12T07:40:08.453Z,1.30
2018-08-12T07:42:35.623Z,1.42
2018-08-12T07:45:03.709Z,1.42
2018-08-12T07:47:30.847Z,1.12
2018-08-12T07:49:58.003Z,2.17
2018-08-12T07:52:25.134Z,1.60
2018-08-12T07:54:52.254Z,1.47
2018-08-12T07:57:19.432Z,1.65
2018-08-12T07:59:46.670Z,1.27
2018-08-12T08:02:13.832Z,1.00
2018-08-12T08:04:41.160Z,1.85
2018-08-12T08:07:08.498Z,1.60
2018-08-12T08:09:35.653Z,1.72
2018-08-12T08:12:02.830Z,1.62
2018-08-12T08:14:30.009Z,1.55
2018-08-12T08:16:57.222Z,1.80
2018-08-12T08:19:24.360Z,1.60
2018-08-12T08:21:51.509Z,1.35
2018-08-12T08:24:18.776Z,1.57
2018-08-12T08:26:46.073Z,1.57
2018-08-12T08:29:13.350Z,1.55
2018-08-12T08:31:40.907Z,1.77
2018-08-12T08:34:07.845Z,1.87
2018-08-12T08:36:34.983Z,1.82
2018-08-12T08:39:02.263Z,1.67
2018-08-12T08:41:29.424Z,1.50
2018-08-12T08:43:56.602Z,1.37
2018-08-12T08:46:23.689Z,1.50
2018-08-12T08:48:51.283Z,1.60
2018-08-12T08:51:18.633Z,1.70
2018-08-12T08:53:45.800Z,1.92
2018-08-12T08:56:13.081Z,1.75
2018-08-12T08:58:40.333Z,1.50
2018-08-12T09:01:07.476Z,1.40
2018-08-12T09:03:34.590Z,1.60
2018-08-12T09:06:01.723Z,1.40
2018-08-12T09:08:29.061Z,1.60
2018-08-12T09:10:56.041Z,1.40
2018-08-12T09:13:23.193Z,1.40
2018-08-12T09:15:50.468Z,1.30
2018-08-12T09:18:17.667Z,1.20
2018-08-12T09:20:44.893Z,1.22
2018-08-12T09:23:12.041Z,1.22
2018-08-12T09:25:39.238Z,1.32
2018-08-12T09:28:06.376Z,1.10
2018-08-12T09:30:33.510Z,1.30
2018-08-12T09:33:00.624Z,1.20
2018-08-12T09:35:27.774Z,1.20
2018-08-12T09:37:54.889Z,1.32
2018-08-12T09:40:22.008Z,1.32
2018-08-12T09:42:49.256Z,1.20
2018-08-12T09:45:18.234Z,1.15
2018-08-12T09:47:45.690Z,1.05
2018-08-12T09:50:14.171Z,1.30
2018-08-12T09:52:41.519Z,1.30
2018-08-12T09:55:09.524Z,1.25
2018-08-12T09:57:36.731Z,1.22
2018-08-12T10:00:07.909Z,1.20
2018-08-12T10:02:35.042Z,1.25
2018-08-12T10:05:02.191Z,1.00
2018-08-12T10:07:29.347Z,0.95
2018-08-12T10:09:56.465Z,1.55
2018-08-12T10:12:23.608Z,1.17
2018-08-12T10:14:50.754Z,1.10
2018-08-12T10:17:18.114Z,1.22
2018-08-12T10:19:45.307Z,1.40
2018-08-12T10:22:12.662Z,1.50
2018-08-12T10:24:39.855Z,1.32
2018-08-12T10:27:07.013Z,1.37
2018-08-12T10:29:34.153Z,1.10
2018-08-12T10:32:01.459Z,1.35
2018-08-12T10:34:28.607Z,1.35
2018-08-12T10:36:55.773Z,1.30
2018-08-12T10:39:22.923Z,1.30
2018-08-12T10:41:50.061Z,1.42
2018-08-12T10:44:17.366Z,1.20
2018-08-12T10:46:44.621Z,1.30
2018-08-12T10:49:11.839Z,1.50
2018-08-12T10:51:38.979Z,1.20
2018-08-12T10:54:06.357Z,1.40
2018-08-12T10:56:33.636Z,1.40
2018-08-12T10:59:00.850Z,1.37
2018-08-12T11:01:28.027Z,1.45
2018-08-12T11:03:55.217Z,1.57
2018-08-12T11:06:22.417Z,1.22
2018-08-12T11:08:49.748Z,1.30
2018-08-12T11:11:17.029Z,1.72
2018-08-12T11:13:44.276Z,1.20
2018-08-12T11:16:11.544Z,1.32
2018-08-12T11:18:38.706Z,1.30
2018-08-12T11:21:05.838Z,1.67
2018-08-12T11:23:33.210Z,1.32
2018-08-12T11:26:00.691Z,2.08
2018-08-12T11:28:28.996Z,1.52
2018-08-12T11:30:57.057Z,1.10
2018-08-12T11:33:24.594Z,1.30
2018-08-12T11:35:51.709Z,1.10
2018-08-12T11:38:18.861Z,1.42
2018-08-12T11:40:46.114Z,1.22
2018-08-12T11:43:13.473Z,1.10
2018-08-12T11:45:40.641Z,1.45
2018-08-12T11:48:07.790Z,1.37
2018-08-12T11:50:34.966Z,1.20
2018-08-12T11:53:02.145Z,1.32
2018-08-12T11:55:29.301Z,1.02
2018-08-12T11:57:56.474Z,1.30
2018-08-12T12:00:23.641Z,1.32
2018-08-12T12:02:51.644Z,1.30
2018-08-12T12:05:18.840Z,2.47
2018-08-12T12:07:46.060Z,1.65
2018-08-12T12:10:15.583Z,1.37
2018-08-12T12:12:44.618Z,1.50
2018-08-12T12:15:12.694Z,1.90
2018-08-12T12:17:39.882Z,1.17
2018-08-12T12:20:08.947Z,1.22
2018-08-12T12:22:37.340Z,1.20
2018-08-12T12:25:06.137Z,1.42
2018-08-12T12:27:33.282Z,1.40
2018-08-12T12:30:00.449Z,1.32
2018-08-12T12:32:27.566Z,1.52
2018-08-12T12:34:54.694Z,0.80
2018-08-12T12:37:21.817Z,1.25
2018-08-12T12:39:49.063Z,1.30
2018-08-12T12:42:16.321Z,1.37
2018-08-12T12:44:43.766Z,1.32
2018-08-12T12:47:10.962Z,1.15
2018-08-12T12:49:38.204Z,0.98
2018-08-12T12:52:05.357Z,1.30
2018-08-12T12:54:32.489Z,1.72
2018-08-12T12:56:59.645Z,1.60
2018-08-12T12:59:26.787Z,2.35
2018-08-12T13:01:53.942Z,1.65
2018-08-12T13:04:21.078Z,1.90
2018-08-12T13:06:48.512Z,1.50
2018-08-12T13:09:15.763Z,1.45
2018-08-12T13:11:43.013Z,1.25
2018-08-12T13:14:10.163Z,1.35
2018-08-12T13:16:37.345Z,1.22
2018-08-12T13:19:05.070Z,1.30
2018-08-12T13:21:32.257Z,1.67
2018-08-12T13:23:59.401Z,1.55
2018-08-12T13:26:26.585Z,26.17
2018-08-12T13:28:53.760Z,24.60
2018-08-12T13:31:21.429Z,16.80
2018-08-12T13:33:48.633Z,2.75
2018-08-12T13:36:15.821Z,1.60
2018-08-12T13:38:43.106Z,1.90
2018-08-12T13:41:10.305Z,1.50
2018-08-12T13:43:37.508Z,1.72
2018-08-12T13:46:04.783Z,5.67
2018-08-12T13:48:31.959Z,12.90
2018-08-12T13:50:59.074Z,7.33
2018-08-12T13:53:26.221Z,2.42
2018-08-12T13:55:53.407Z,2.10
2018-08-12T13:58:20.573Z,2.25
2018-08-12T14:00:47.819Z,1.77
2018-08-12T14:03:14.998Z,1.57
2018-08-12T14:05:42.254Z,1.30
2018-08-12T14:08:09.424Z,1.50
2018-08-12T14:10:36.602Z,1.37
2018-08-12T14:13:03.834Z,1.52
2018-08-12T14:15:30.960Z,1.20
2018-08-12T14:17:58.085Z,1.30
2018-08-12T14:20:25.279Z,1.60
2018-08-12T14:22:52.410Z,1.30
2018-08-12T14:25:19.840Z,1.27
2018-08-12T14:27:47.039Z,1.10
2018-08-12T14:30:19.291Z,1.40
2018-08-12T14:32:47.167Z,1.45
2018-08-12T14:35:14.446Z,1.15
2018-08-12T14:37:42.026Z,2.00
2018-08-12T14:40:10.614Z,1.90
2018-08-12T14:42:37.777Z,1.40
2018-08-12T14:45:05.620Z,2.45
2018-08-12T14:47:32.747Z,2.20
2018-08-12T14:49:59.978Z,1.50
2018-08-12T14:52:27.154Z,1.25
2018-08-12T14:54:54.315Z,1.52
2018-08-12T14:57:21.731Z,1.65
2018-08-12T14:59:48.859Z,1.50
2018-08-12T15:02:16.098Z,1.65
2018-08-12T15:04:43.437Z,1.72
2018-08-12T15:07:11.026Z,1.55
2018-08-12T15:09:38.121Z,1.40
2018-08-12T15:12:05.295Z,2.20
2018-08-12T15:14:32.509Z,2.02
2018-08-12T15:16:59.773Z,1.62
2018-08-12T15:19:26.916Z,1.40
2018-08-12T15:21:54.161Z,1.92
2018-08-12T15:24:21.335Z,2.40
2018-08-12T15:26:48.555Z,2.58
2018-08-12T15:29:15.767Z,1.95
2018-08-12T15:31:42.912Z,1.75
2018-08-12T15:34:10.199Z,1.45
2018-08-12T15:36:37.469Z,0.93
2018-08-12T15:39:07.858Z,1.47
2018-08-12T15:41:35.002Z,1.45
2018-08-12T15:44:02.418Z,1.40
2018-08-12T15:46:29.506Z,1.40
2018-08-12T15:48:56.670Z,1.17
2018-08-12T15:51:23.817Z,1.70
2018-08-12T15:53:51.386Z,1.42
2018-08-12T15:56:18.550Z,1.80
2018-08-12T15:58:45.770Z,1.50
2018-08-12T16:01:12.958Z,1.82
2018-08-12T16:03:40.147Z,1.27
2018-08-12T16:06:07.332Z,1.42
2018-08-12T16:08:34.473Z,1.52
2018-08-12T16:11:01.615Z,1.85
2018-08-12T16:13:29.134Z,1.20
2018-08-12T16:15:56.322Z,1.40
2018-08-12T16:18:23.499Z,1.20
2018-08-12T16:20:50.665Z,1.47
2018-08-12T16:23:17.778Z,1.67
2018-08-12T16:25:45.535Z,1.80
2018-08-12T16:28:12.796Z,1.40
2018-08-12T16:30:40.010Z,1.37
2018-08-12T16:33:07.153Z,1.70
2018-08-12T16:35:34.725Z,1.70
2018-08-12T16:38:01.895Z,2.17
2018-08-12T16:40:29.054Z,2.27
2018-08-12T16:42:56.174Z,2.05
2018-08-12T16:45:23.320Z,2.45
2018-08-12T16:47:50.458Z,2.00
2018-08-12T16:50:17.623Z,2.10
2018-08-12T16:52:45.300Z,2.05
2018-08-12T16:55:14.070Z,2.15
2018-08-12T16:57:41.626Z,1.70
2018-08-12T17:00:13.945Z,1.80
2018-08-12T17:02:41.386Z,1.67
2018-08-12T17:05:10.891Z,1.60
2018-08-12T17:07:38.034Z,1.50
2018-08-12T17:10:06.027Z,1.70
2018-08-12T17:12:33.188Z,1.80
2018-08-12T17:15:00.610Z,1.60
2018-08-12T17:17:27.710Z,1.62
2018-08-12T17:19:54.869Z,1.40
2018-08-12T17:22:22.312Z,1.45
2018-08-12T17:24:49.394Z,1.20
2018-08-12T17:27:16.565Z,1.82
2018-08-12T17:29:43.741Z,2.27
2018-08-12T17:32:10.961Z,4.45
2018-08-12T17:34:38.106Z,2.50
2018-08-12T17:37:05.238Z,2.02
2018-08-12T17:39:32.850Z,1.57
2018-08-12T17:41:59.978Z,1.70
2018-08-12T17:44:27.319Z,1.67
2018-08-12T17:46:54.441Z,1.82
2018-08-12T17:49:21.582Z,1.80
2018-08-12T17:51:48.813Z,1.62
2018-08-12T17:54:16.098Z,1.90
2018-08-12T17:56:43.295Z,1.57
2018-08-12T17:59:10.449Z,1.77
2018-08-12T18:01:37.623Z,1.67
2018-08-12T18:04:04.769Z,1.98
2018-08-12T18:06:31.926Z,1.80
2018-08-12T18:08:59.058Z,1.40
2018-08-12T18:11:26.187Z,1.42
2018-08-12T18:13:53.587Z,1.87
2018-08-12T18:16:20.902Z,1.52
2018-08-12T18:18:48.270Z,1.60
2018-08-12T18:21:15.586Z,1.30
2018-08-12T18:23:42.907Z,1.98
2018-08-12T18:26:10.194Z,1.80
2018-08-12T18:28:37.360Z,1.90
2018-08-12T18:31:04.500Z,1.40
2018-08-12T18:33:31.622Z,1.55
2018-08-12T18:35:58.798Z,2.20
2018-08-12T18:38:25.908Z,1.80
2018-08-12T18:40:53.249Z,2.10
2018-08-12T18:43:20.379Z,1.73
2018-08-12T18:45:47.558Z,1.60
2018-08-12T18:48:14.760Z,1.70
2018-08-12T18:50:42.039Z,2.70
2018-08-12T18:53:09.204Z,3.90
2018-08-12T18:55:36.329Z,4.90
2018-08-12T18:58:04.187Z,4.57
2018-08-12T19:00:31.329Z,3.43
2018-08-12T19:02:58.833Z,3.47
2018-08-12T19:05:25.993Z,2.97
2018-08-12T19:07:53.133Z,2.80
2018-08-12T19:10:20.293Z,1.90
2018-08-12T19:12:47.566Z,2.10
2018-08-12T19:15:17.409Z,1.50
2018-08-12T19:17:44.598Z,1.30
2018-08-12T19:20:11.990Z,1.63
2018-08-12T19:22:39.730Z,2.00
2018-08-12T19:25:07.781Z,1.67
2018-08-12T19:27:35.465Z,1.73
2018-08-12T19:30:02.975Z,1.60
2018-08-12T19:32:30.095Z,1.80
2018-08-12T19:34:57.262Z,2.00
2018-08-12T19:37:24.449Z,1.77
2018-08-12T19:39:51.616Z,2.00
2018-08-12T19:42:18.876Z,1.20
2018-08-12T19:44:46.118Z,1.53
2018-08-12T19:47:13.374Z,1.57
2018-08-12T19:49:40.846Z,1.17
2018-08-12T19:52:07.986Z,1.93
2018-08-12T19:54:35.142Z,1.63
2018-08-12T19:57:02.325Z,1.17
2018-08-12T19:59:29.462Z,1.30
2018-08-12T20:01:56.997Z,1.47
2018-08-12T20:04:24.272Z,1.20
2018-08-12T20:06:51.435Z,1.27
2018-08-12T20:09:18.664Z,1.83
2018-08-12T20:11:45.923Z,1.70
2018-08-12T20:14:13.185Z,1.20
2018-08-12T20:16:40.492Z,1.50
2018-08-12T20:19:07.638Z,1.37
2018-08-12T20:21:34.824Z,1.47
2018-08-12T20:24:02.798Z,1.37
2018-08-12T20:26:29.995Z,1.20
2018-08-12T20:28:57.262Z,1.37
2018-08-12T20:31:24.488Z,1.27
2018-08-12T20:33:51.841Z,1.40
2018-08-12T20:36:19.065Z,1.33
2018-08-12T20:38:46.291Z,1.50
2018-08-12T20:41:13.503Z,1.03
2018-08-12T20:43:40.690Z,1.30
2018-08-12T20:46:07.846Z,1.50
2018-08-12T20:48:35.009Z,1.37
2018-08-12T20:51:02.163Z,1.40
2018-08-12T20:53:29.299Z,1.47
2018-08-12T20:55:56.462Z,1.67
2018-08-12T20:58:23.585Z,1.50
2018-08-12T21:00:50.718Z,1.37
2018-08-12T21:03:17.842Z,1.30
2018-08-12T21:05:45.081Z,1.37
2018-08-12T21:08:12.552Z,1.67
2018-08-12T21:10:39.735Z,1.30
2018-08-12T21:13:06.930Z,1.30
2018-08-12T21:15:34.451Z,1.20
2018-08-12T21:18:01.602Z,1.10
2018-08-12T21:20:28.802Z,1.40
2018-08-12T21:22:56.005Z,1.43
2018-08-12T21:25:23.163Z,1.30
2018-08-12T21:27:50.778Z,1.40
2018-08-12T21:30:18.170Z,1.33
2018-08-12T21:32:45.464Z,1.20
2018-08-12T21:35:12.722Z,1.47
2018-08-12T21:37:40.818Z,1.53
2018-08-12T21:40:07.999Z,1.10
2018-08-12T21:42:35.154Z,1.20
2018-08-12T21:45:02.416Z,1.30
2018-08-12T21:47:29.525Z,1.50
2018-08-12T21:49:56.668Z,1.53
2018-08-12T21:52:24.097Z,1.10
2018-08-12T21:54:51.436Z,1.20
2018-08-12T21:57:18.763Z,1.10
2018-08-12T21:59:46.090Z,1.00
2018-08-12T22:02:13.457Z,1.30
2018-08-12T22:04:40.834Z,1.07
2018-08-12T22:07:08.001Z,1.10
2018-08-12T22:09:35.126Z,1.30
2018-08-12T22:12:02.271Z,1.23
2018-08-12T22:14:29.541Z,1.23
2018-08-12T22:16:56.715Z,1.57
2018-08-12T22:19:23.897Z,1.20
2018-08-12T22:21:51.371Z,1.37
2018-08-12T22:24:18.754Z,1.30
2018-08-12T22:26:45.992Z,0.90
2018-08-12T22:29:13.244Z,1.10
2018-08-12T22:31:40.590Z,1.43
2018-08-12T22:34:07.773Z,1.27
2018-08-12T22:36:34.910Z,1.40
2018-08-12T22:39:02.105Z,1.30
2018-08-12T22:41:29.611Z,0.90
2018-08-12T22:43:56.771Z,1.20
2018-08-12T22:46:23.914Z,1.30
2018-08-12T22:48:51.416Z,1.10
2018-08-12T22:51:18.695Z,1.00
2018-08-12T22:53:46.196Z,0.83
2018-08-12T22:56:13.853Z,1.23
2018-08-12T22:58:41.158Z,1.20
2018-08-12T23:01:08.715Z,1.20
2018-08-12T23:03:35.859Z,1.30
2018-08-12T23:06:03.038Z,1.10
2018-08-12T23:08:30.522Z,1.40
2018-08-12T23:10:57.695Z,1.33
2018-08-12T23:13:24.878Z,1.00
2018-08-12T23:16:15.324Z,1.13
2018-08-12T23:18:42.562Z,1.13
2018-08-12T23:21:11.694Z,1.10
2018-08-12T23:23:39.966Z,1.20
2018-08-12T23:26:07.113Z,1.13
2018-08-12T23:28:34.256Z,1.30
2018-08-12T23:31:01.410Z,1.00
2018-08-12T23:33:28.581Z,1.17
2018-08-12T23:35:55.749Z,1.23
2018-08-12T23:38:22.886Z,1.17
2018-08-12T23:40:50.161Z,1.20
2018-08-12T23:43:17.365Z,0.90
2018-08-12T23:45:45.101Z,0.97
2018-08-12T23:48:12.482Z,1.20
2018-08-12T23:50:39.645Z,0.90
2018-08-12T23:53:07.583Z,1.17
2018-08-12T23:55:34.766Z,1.40
2018-08-12T23:58:01.922Z,1.50
